sensor_id;sensor_type;location;lat;lon;timestamp;P1;durP1;ratioP1;P2;durP2;ratioP2
29452;SDS011;16424;50.956;5.320;2023-04-01T00:01:26;3.88;;;0.95;;
29452;SDS011;16424;50.956;5.320;2023-04-01T00:03:52;4.78;;;1.05;;
29452;SDS011;16424;50.956;5.320;2023-04-01T00:06:19;6.22;;;1.35;;
29452;SDS011;16424;50.956;5.320;2023-04-01T00:08:45;3.50;;;0.90;;
29452;SDS011;16424;50.956;5.320;2023-04-01T00:11:11;5.22;;;1.70;;
29452;SDS011;16424;50.956;5.320;2023-04-01T00:13:37;4.35;;;0.90;;
29452;SDS011;16424;50.956;5.320;2023-04-01T00:16:03;3.05;;;0.82;;
29452;SDS011;16424;50.956;5.320;2023-04-01T00:18:29;4.22;;;0.95;;
29452;SDS011;16424;50.956;5.320;2023-04-01T00:20:55;3.45;;;0.98;;
29452;SDS011;16424;50.956;5.320;2023-04-01T00:23:21;4.75;;;1.00;;
29452;SDS011;16424;50.956;5.320;2023-04-01T00:25:47;1.83;;;0.85;;
29452;SDS011;16424;50.956;5.320;2023-04-01T00:28:18;4.13;;;1.00;;
29452;SDS011;16424;50.956;5.320;2023-04-01T00:30:44;3.80;;;0.88;;
29452;SDS011;16424;50.956;5.320;2023-04-01T00:33:10;4.35;;;1.20;;
29452;SDS011;16424;50.956;5.320;2023-04-01T00:35:36;2.47;;;1.25;;
29452;SDS011;16424;50.956;5.320;2023-04-01T00:38:01;5.00;;;0.70;;
29452;SDS011;16424;50.956;5.320;2023-04-01T00:42:55;4.30;;;0.90;;
29452;SDS011;16424;50.956;5.320;2023-04-01T00:45:32;2.13;;;1.48;;
29452;SDS011;16424;50.956;5.320;2023-04-01T00:48:01;3.10;;;0.65;;
29452;SDS011;16424;50.956;5.320;2023-04-01T00:50:32;4.82;;;1.15;;
29452;SDS011;16424;50.956;5.320;2023-04-01T00:53:00;4.95;;;1.17;;
29452;SDS011;16424;50.956;5.320;2023-04-01T00:55:27;2.80;;;0.90;;
29452;SDS011;16424;50.956;5.320;2023-04-01T00:57:57;3.58;;;0.80;;
29452;SDS011;16424;50.956;5.320;2023-04-01T01:00:24;2.63;;;1.10;;
29452;SDS011;16424;50.956;5.320;2023-04-01T01:02:51;3.55;;;1.00;;
29452;SDS011;16424;50.956;5.320;2023-04-01T01:05:17;4.00;;;1.20;;
29452;SDS011;16424;50.956;5.320;2023-04-01T01:08:11;2.30;;;1.00;;
29452;SDS011;16424;50.956;5.320;2023-04-01T01:10:51;2.00;;;0.82;;
29452;SDS011;16424;50.956;5.320;2023-04-01T01:13:23;3.65;;;1.30;;
29452;SDS011;16424;50.956;5.320;2023-04-01T01:15:58;7.78;;;1.88;;
29452;SDS011;16424;50.956;5.320;2023-04-01T01:27:09;4.97;;;1.50;;
29452;SDS011;16424;50.956;5.320;2023-04-01T01:37:48;9.30;;;1.80;;
29452;SDS011;16424;50.956;5.320;2023-04-01T01:40:18;2.35;;;1.23;;
29452;SDS011;16424;50.956;5.320;2023-04-01T01:42:50;3.42;;;1.90;;
29452;SDS011;16424;50.956;5.320;2023-04-01T01:45:21;4.25;;;1.30;;
29452;SDS011;16424;50.956;5.320;2023-04-01T01:47:49;6.55;;;1.40;;
29452;SDS011;16424;50.956;5.320;2023-04-01T01:50:17;2.85;;;1.00;;
29452;SDS011;16424;50.956;5.320;2023-04-01T01:52:44;3.65;;;1.08;;
29452;SDS011;16424;50.956;5.320;2023-04-01T01:55:31;5.10;;;1.42;;
29452;SDS011;16424;50.956;5.320;2023-04-01T01:57:57;11.15;;;1.65;;
29452;SDS011;16424;50.956;5.320;2023-04-01T02:00:26;5.55;;;0.98;;
29452;SDS011;16424;50.956;5.320;2023-04-01T02:02:53;2.25;;;1.00;;
29452;SDS011;16424;50.956;5.320;2023-04-01T02:05:21;3.38;;;1.13;;
29452;SDS011;16424;50.956;5.320;2023-04-01T02:07:52;4.45;;;1.10;;
29452;SDS011;16424;50.956;5.320;2023-04-01T02:10:36;4.30;;;1.15;;
29452;SDS011;16424;50.956;5.320;2023-04-01T02:13:07;2.08;;;0.95;;
29452;SDS011;16424;50.956;5.320;2023-04-01T02:15:42;4.45;;;1.20;;
29452;SDS011;16424;50.956;5.320;2023-04-01T02:18:12;5.82;;;1.27;;
29452;SDS011;16424;50.956;5.320;2023-04-01T02:20:39;5.82;;;2.00;;
29452;SDS011;16424;50.956;5.320;2023-04-01T02:23:05;2.83;;;1.13;;
29452;SDS011;16424;50.956;5.320;2023-04-01T02:25:34;2.72;;;1.25;;
29452;SDS011;16424;50.956;5.320;2023-04-01T02:28:01;2.45;;;1.27;;
29452;SDS011;16424;50.956;5.320;2023-04-01T02:30:29;3.97;;;1.13;;
29452;SDS011;16424;50.956;5.320;2023-04-01T02:32:58;3.25;;;1.40;;
29452;SDS011;16424;50.956;5.320;2023-04-01T02:35:25;1.42;;;1.00;;
29452;SDS011;16424;50.956;5.320;2023-04-01T02:37:51;5.10;;;1.65;;
29452;SDS011;16424;50.956;5.320;2023-04-01T02:40:19;2.33;;;1.00;;
29452;SDS011;16424;50.956;5.320;2023-04-01T02:42:45;0.98;;;0.85;;
29452;SDS011;16424;50.956;5.320;2023-04-01T02:45:11;3.67;;;0.98;;
29452;SDS011;16424;50.956;5.320;2023-04-01T02:47:37;2.25;;;0.68;;
29452;SDS011;16424;50.956;5.320;2023-04-01T02:50:03;3.22;;;1.10;;
29452;SDS011;16424;50.956;5.320;2023-04-01T02:52:30;1.65;;;1.00;;
29452;SDS011;16424;50.956;5.320;2023-04-01T02:54:56;0.77;;;0.77;;
29452;SDS011;16424;50.956;5.320;2023-04-01T02:57:23;2.70;;;1.10;;
29452;SDS011;16424;50.956;5.320;2023-04-01T02:59:49;1.63;;;0.80;;
29452;SDS011;16424;50.956;5.320;2023-04-01T03:02:15;2.75;;;0.80;;
29452;SDS011;16424;50.956;5.320;2023-04-01T03:04:42;1.23;;;1.02;;
29452;SDS011;16424;50.956;5.320;2023-04-01T03:07:09;1.17;;;0.80;;
29452;SDS011;16424;50.956;5.320;2023-04-01T03:09:37;1.92;;;1.20;;
29452;SDS011;16424;50.956;5.320;2023-04-01T03:12:05;1.33;;;1.10;;
29452;SDS011;16424;50.956;5.320;2023-04-01T03:14:31;1.67;;;1.10;;
29452;SDS011;16424;50.956;5.320;2023-04-01T03:16:56;2.20;;;1.20;;
29452;SDS011;16424;50.956;5.320;2023-04-01T03:19:22;1.85;;;1.33;;
29452;SDS011;16424;50.956;5.320;2023-04-01T03:21:48;1.88;;;1.35;;
29452;SDS011;16424;50.956;5.320;2023-04-01T03:24:13;3.75;;;1.42;;
29452;SDS011;16424;50.956;5.320;2023-04-01T03:26:39;2.95;;;1.30;;
29452;SDS011;16424;50.956;5.320;2023-04-01T03:29:04;2.90;;;2.00;;
29452;SDS011;16424;50.956;5.320;2023-04-01T03:31:30;4.25;;;1.65;;
29452;SDS011;16424;50.956;5.320;2023-04-01T03:33:56;2.78;;;1.50;;
29452;SDS011;16424;50.956;5.320;2023-04-01T03:36:22;3.80;;;1.60;;
29452;SDS011;16424;50.956;5.320;2023-04-01T03:38:48;3.55;;;1.50;;
29452;SDS011;16424;50.956;5.320;2023-04-01T03:41:14;3.42;;;1.67;;
29452;SDS011;16424;50.956;5.320;2023-04-01T03:43:41;5.50;;;1.33;;
29452;SDS011;16424;50.956;5.320;2023-04-01T03:46:07;3.05;;;1.40;;
29452;SDS011;16424;50.956;5.320;2023-04-01T03:48:32;2.05;;;1.67;;
29452;SDS011;16424;50.956;5.320;2023-04-01T03:50:58;2.90;;;1.48;;
29452;SDS011;16424;50.956;5.320;2023-04-01T03:53:23;2.88;;;1.40;;
29452;SDS011;16424;50.956;5.320;2023-04-01T03:55:49;3.33;;;1.40;;
29452;SDS011;16424;50.956;5.320;2023-04-01T03:58:16;3.75;;;1.55;;
29452;SDS011;16424;50.956;5.320;2023-04-01T04:00:42;5.55;;;1.48;;
29452;SDS011;16424;50.956;5.320;2023-04-01T04:03:08;2.95;;;1.33;;
29452;SDS011;16424;50.956;5.320;2023-04-01T04:05:34;1.95;;;1.20;;
29452;SDS011;16424;50.956;5.320;2023-04-01T04:08:00;3.15;;;1.90;;
29452;SDS011;16424;50.956;5.320;2023-04-01T04:10:25;3.42;;;1.75;;
29452;SDS011;16424;50.956;5.320;2023-04-01T04:12:51;4.43;;;1.80;;
29452;SDS011;16424;50.956;5.320;2023-04-01T04:15:17;3.00;;;1.48;;
29452;SDS011;16424;50.956;5.320;2023-04-01T04:17:44;3.67;;;1.55;;
29452;SDS011;16424;50.956;5.320;2023-04-01T04:20:10;3.70;;;1.60;;
29452;SDS011;16424;50.956;5.320;2023-04-01T04:22:36;5.10;;;1.63;;
29452;SDS011;16424;50.956;5.320;2023-04-01T04:25:01;4.63;;;1.95;;
29452;SDS011;16424;50.956;5.320;2023-04-01T04:27:27;4.38;;;2.08;;
29452;SDS011;16424;50.956;5.320;2023-04-01T04:29:53;2.28;;;1.40;;
29452;SDS011;16424;50.956;5.320;2023-04-01T04:32:19;4.90;;;1.40;;
29452;SDS011;16424;50.956;5.320;2023-04-01T04:34:45;5.03;;;1.70;;
29452;SDS011;16424;50.956;5.320;2023-04-01T04:37:10;3.92;;;1.50;;
29452;SDS011;16424;50.956;5.320;2023-04-01T04:39:36;2.22;;;1.60;;
29452;SDS011;16424;50.956;5.320;2023-04-01T04:42:02;2.97;;;1.58;;
29452;SDS011;16424;50.956;5.320;2023-04-01T04:44:27;6.20;;;2.60;;
29452;SDS011;16424;50.956;5.320;2023-04-01T04:46:53;5.68;;;2.08;;
29452;SDS011;16424;50.956;5.320;2023-04-01T04:49:19;3.72;;;1.90;;
29452;SDS011;16424;50.956;5.320;2023-04-01T04:51:44;6.03;;;1.88;;
29452;SDS011;16424;50.956;5.320;2023-04-01T04:54:10;3.88;;;2.28;;
29452;SDS011;16424;50.956;5.320;2023-04-01T04:56:36;6.70;;;2.80;;
29452;SDS011;16424;50.956;5.320;2023-04-01T04:59:02;6.93;;;2.40;;
29452;SDS011;16424;50.956;5.320;2023-04-01T05:01:27;6.25;;;2.20;;
29452;SDS011;16424;50.956;5.320;2023-04-01T05:03:53;7.45;;;2.75;;
29452;SDS011;16424;50.956;5.320;2023-04-01T05:06:19;8.13;;;2.80;;
29452;SDS011;16424;50.956;5.320;2023-04-01T05:08:45;6.10;;;3.60;;
29452;SDS011;16424;50.956;5.320;2023-04-01T05:11:12;6.57;;;3.15;;
29452;SDS011;16424;50.956;5.320;2023-04-01T05:13:41;8.05;;;3.55;;
29452;SDS011;16424;50.956;5.320;2023-04-01T05:16:12;8.35;;;3.92;;
29452;SDS011;16424;50.956;5.320;2023-04-01T05:18:42;8.05;;;4.43;;
29452;SDS011;16424;50.956;5.320;2023-04-01T05:21:08;5.97;;;3.67;;
29452;SDS011;16424;50.956;5.320;2023-04-01T05:23:35;10.50;;;4.75;;
29452;SDS011;16424;50.956;5.320;2023-04-01T05:26:08;9.45;;;4.10;;
29452;SDS011;16424;50.956;5.320;2023-04-01T05:28:36;6.43;;;4.03;;
29452;SDS011;16424;50.956;5.320;2023-04-01T05:31:03;6.72;;;4.68;;
29452;SDS011;16424;50.956;5.320;2023-04-01T05:33:30;9.63;;;4.32;;
29452;SDS011;16424;50.956;5.320;2023-04-01T05:35:56;8.63;;;4.18;;
29452;SDS011;16424;50.956;5.320;2023-04-01T05:38:30;5.80;;;3.70;;
29452;SDS011;16424;50.956;5.320;2023-04-01T05:41:00;6.32;;;4.30;;
29452;SDS011;16424;50.956;5.320;2023-04-01T05:43:27;10.05;;;4.20;;
29452;SDS011;16424;50.956;5.320;2023-04-01T05:45:54;8.35;;;4.03;;
29452;SDS011;16424;50.956;5.320;2023-04-01T05:48:20;9.45;;;4.20;;
29452;SDS011;16424;50.956;5.320;2023-04-01T05:50:45;12.73;;;4.60;;
29452;SDS011;16424;50.956;5.320;2023-04-01T05:53:11;6.60;;;4.18;;
29452;SDS011;16424;50.956;5.320;2023-04-01T05:55:37;7.38;;;4.50;;
29452;SDS011;16424;50.956;5.320;2023-04-01T05:58:02;5.68;;;3.35;;
29452;SDS011;16424;50.956;5.320;2023-04-01T06:00:28;8.52;;;4.03;;
29452;SDS011;16424;50.956;5.320;2023-04-01T06:02:54;4.38;;;3.47;;
29452;SDS011;16424;50.956;5.320;2023-04-01T06:07:47;9.40;;;3.15;;
29452;SDS011;16424;50.956;5.320;2023-04-01T06:10:18;5.13;;;3.05;;
29452;SDS011;16424;50.956;5.320;2023-04-01T06:18:07;4.15;;;2.92;;
29452;SDS011;16424;50.956;5.320;2023-04-01T06:20:47;3.65;;;2.70;;
29452;SDS011;16424;50.956;5.320;2023-04-01T06:23:21;3.83;;;2.75;;
29452;SDS011;16424;50.956;5.320;2023-04-01T06:34:30;2.53;;;2.00;;
29452;SDS011;16424;50.956;5.320;2023-04-01T06:47:26;2.58;;;1.95;;
29452;SDS011;16424;50.956;5.320;2023-04-01T06:50:04;2.80;;;2.00;;
29452;SDS011;16424;50.956;5.320;2023-04-01T06:55:35;2.22;;;2.00;;
29452;SDS011;16424;50.956;5.320;2023-04-01T06:58:06;2.03;;;1.60;;
29452;SDS011;16424;50.956;5.320;2023-04-01T07:00:42;1.60;;;1.30;;
29452;SDS011;16424;50.956;5.320;2023-04-01T07:05:59;3.15;;;1.77;;
29452;SDS011;16424;50.956;5.320;2023-04-01T07:08:31;2.03;;;1.73;;
29452;SDS011;16424;50.956;5.320;2023-04-01T07:11:02;3.88;;;1.80;;
29452;SDS011;16424;50.956;5.320;2023-04-01T07:16:24;1.55;;;1.45;;
29452;SDS011;16424;50.956;5.320;2023-04-01T07:19:05;3.13;;;1.45;;
29452;SDS011;16424;50.956;5.320;2023-04-01T07:21:42;1.75;;;1.00;;
29452;SDS011;16424;50.956;5.320;2023-04-01T07:24:11;1.17;;;1.08;;
29452;SDS011;16424;50.956;5.320;2023-04-01T07:26:43;2.55;;;1.00;;
29452;SDS011;16424;50.956;5.320;2023-04-01T07:29:09;0.95;;;0.85;;
29452;SDS011;16424;50.956;5.320;2023-04-01T07:31:44;2.38;;;1.00;;
29452;SDS011;16424;50.956;5.320;2023-04-01T07:36:57;0.60;;;0.55;;
29452;SDS011;16424;50.956;5.320;2023-04-01T07:45:01;3.55;;;1.17;;
29452;SDS011;16424;50.956;5.320;2023-04-01T07:48:33;1.40;;;1.05;;
29452;SDS011;16424;50.956;5.320;2023-04-01T07:50:32;1.10;;;1.00;;
29452;SDS011;16424;50.956;5.320;2023-04-01T07:58:55;1.25;;;1.05;;
29452;SDS011;16424;50.956;5.320;2023-04-01T08:22:50;1.90;;;0.90;;
29452;SDS011;16424;50.956;5.320;2023-04-01T08:25:26;1.23;;;1.00;;
29452;SDS011;16424;50.956;5.320;2023-04-01T08:27:57;1.58;;;0.90;;
29452;SDS011;16424;50.956;5.320;2023-04-01T08:33:19;1.27;;;1.17;;
29452;SDS011;16424;50.956;5.320;2023-04-01T08:35:49;2.90;;;1.50;;
29452;SDS011;16424;50.956;5.320;2023-04-01T08:38:42;1.33;;;1.23;;
29452;SDS011;16424;50.956;5.320;2023-04-01T08:41:27;2.05;;;1.52;;
29452;SDS011;16424;50.956;5.320;2023-04-01T08:44:12;1.38;;;1.27;;
29452;SDS011;16424;50.956;5.320;2023-04-01T08:50:01;1.30;;;1.20;;
29452;SDS011;16424;50.956;5.320;2023-04-01T08:52:50;3.78;;;1.83;;
29452;SDS011;16424;50.956;5.320;2023-04-01T08:55:30;1.67;;;1.30;;
29452;SDS011;16424;50.956;5.320;2023-04-01T09:01:17;2.08;;;1.30;;
29452;SDS011;16424;50.956;5.320;2023-04-01T09:09:52;3.13;;;1.58;;
29452;SDS011;16424;50.956;5.320;2023-04-01T09:12:43;1.83;;;1.33;;
29452;SDS011;16424;50.956;5.320;2023-04-01T09:15:25;2.27;;;1.40;;
29452;SDS011;16424;50.956;5.320;2023-04-01T09:18:39;3.63;;;1.60;;
29452;SDS011;16424;50.956;5.320;2023-04-01T09:27:04;4.57;;;2.08;;
29452;SDS011;16424;50.956;5.320;2023-04-01T09:37:58;2.38;;;2.08;;
29452;SDS011;16424;50.956;5.320;2023-04-01T09:46:31;1.98;;;1.40;;
29452;SDS011;16424;50.956;5.320;2023-04-01T09:52:36;1.60;;;1.50;;
29452;SDS011;16424;50.956;5.320;2023-04-01T09:56:01;2.60;;;1.55;;
29452;SDS011;16424;50.956;5.320;2023-04-01T10:14:34;1.23;;;1.13;;
29452;SDS011;16424;50.956;5.320;2023-04-01T10:25:44;1.80;;;1.40;;
29452;SDS011;16424;50.956;5.320;2023-04-01T10:31:10;3.50;;;1.58;;
29452;SDS011;16424;50.956;5.320;2023-04-01T10:50:23;1.90;;;1.70;;
29452;SDS011;16424;50.956;5.320;2023-04-01T11:21:59;2.92;;;2.63;;
29452;SDS011;16424;50.956;5.320;2023-04-01T11:24:51;3.58;;;2.67;;
29452;SDS011;16424;50.956;5.320;2023-04-01T11:35:46;4.95;;;4.45;;
29452;SDS011;16424;50.956;5.320;2023-04-01T11:41:08;4.40;;;4.00;;
29452;SDS011;16424;50.956;5.320;2023-04-01T11:58:01;7.80;;;5.80;;
29452;SDS011;16424;50.956;5.320;2023-04-01T12:03:41;7.50;;;6.13;;
29452;SDS011;16424;50.956;5.320;2023-04-01T12:06:30;7.57;;;5.75;;
29452;SDS011;16424;50.956;5.320;2023-04-01T12:37:12;3.25;;;2.05;;
29452;SDS011;16424;50.956;5.320;2023-04-01T13:12:56;5.57;;;4.90;;
29452;SDS011;16424;50.956;5.320;2023-04-01T13:21:11;5.40;;;4.40;;
29452;SDS011;16424;50.956;5.320;2023-04-01T13:32:15;6.30;;;3.28;;
29452;SDS011;16424;50.956;5.320;2023-04-01T13:37:26;3.40;;;3.10;;
29452;SDS011;16424;50.956;5.320;2023-04-01T13:40:33;4.30;;;3.70;;
29452;SDS011;16424;50.956;5.320;2023-04-01T13:51:23;5.85;;;4.18;;
29452;SDS011;16424;50.956;5.320;2023-04-01T14:05:35;6.18;;;3.97;;
29452;SDS011;16424;50.956;5.320;2023-04-01T14:08:26;5.25;;;4.10;;
29452;SDS011;16424;50.956;5.320;2023-04-01T14:11:15;4.22;;;3.80;;
29452;SDS011;16424;50.956;5.320;2023-04-01T14:28:09;3.88;;;2.10;;
29452;SDS011;16424;50.956;5.320;2023-04-01T14:34:11;2.47;;;2.28;;
29452;SDS011;16424;50.956;5.320;2023-04-01T14:42:45;2.13;;;1.60;;
29452;SDS011;16424;50.956;5.320;2023-04-01T14:47:58;1.73;;;1.60;;
29452;SDS011;16424;50.956;5.320;2023-04-01T14:50:45;1.95;;;1.73;;
29452;SDS011;16424;50.956;5.320;2023-04-01T14:53:28;1.63;;;1.40;;
29452;SDS011;16424;50.956;5.320;2023-04-01T14:55:59;1.88;;;1.50;;
29452;SDS011;16424;50.956;5.320;2023-04-01T15:17:33;2.50;;;1.30;;
29452;SDS011;16424;50.956;5.320;2023-04-01T15:30:56;2.85;;;1.60;;
29452;SDS011;16424;50.956;5.320;2023-04-01T15:39:16;3.55;;;1.40;;
29452;SDS011;16424;50.956;5.320;2023-04-01T15:49:53;3.25;;;1.60;;
29452;SDS011;16424;50.956;5.320;2023-04-01T15:55:33;1.77;;;1.63;;
29452;SDS011;16424;50.956;5.320;2023-04-01T15:58:25;1.67;;;1.10;;
29452;SDS011;16424;50.956;5.320;2023-04-01T16:09:49;2.25;;;1.27;;
29452;SDS011;16424;50.956;5.320;2023-04-01T16:23:37;1.73;;;1.33;;
29452;SDS011;16424;50.956;5.320;2023-04-01T16:26:15;1.55;;;1.20;;
29452;SDS011;16424;50.956;5.320;2023-04-01T16:29:10;1.00;;;1.00;;
29452;SDS011;16424;50.956;5.320;2023-04-01T16:34:30;1.15;;;1.05;;
29452;SDS011;16424;50.956;5.320;2023-04-01T16:37:11;1.17;;;0.68;;
29452;SDS011;16424;50.956;5.320;2023-04-01T16:48:22;1.13;;;1.00;;
29452;SDS011;16424;50.956;5.320;2023-04-01T16:51:17;2.30;;;1.40;;
29452;SDS011;16424;50.956;5.320;2023-04-01T16:53:52;2.50;;;2.00;;
29452;SDS011;16424;50.956;5.320;2023-04-01T16:56:47;4.78;;;3.60;;
29452;SDS011;16424;50.956;5.320;2023-04-01T17:04:45;6.75;;;4.70;;
29452;SDS011;16424;50.956;5.320;2023-04-01T17:07:35;8.13;;;5.40;;
29452;SDS011;16424;50.956;5.320;2023-04-01T17:13:35;6.15;;;4.57;;
29452;SDS011;16424;50.956;5.320;2023-04-01T17:21:15;5.28;;;4.43;;
29452;SDS011;16424;50.956;5.320;2023-04-01T17:31:46;5.05;;;3.30;;
29452;SDS011;16424;50.956;5.320;2023-04-01T17:40:01;3.50;;;3.13;;
29452;SDS011;16424;50.956;5.320;2023-04-01T17:45:46;3.60;;;3.03;;
29452;SDS011;16424;50.956;5.320;2023-04-01T17:48:38;3.47;;;2.60;;
29452;SDS011;16424;50.956;5.320;2023-04-01T17:59:55;2.10;;;1.90;;
29452;SDS011;16424;50.956;5.320;2023-04-01T18:03:14;2.88;;;2.40;;
29452;SDS011;16424;50.956;5.320;2023-04-01T18:05:23;2.88;;;2.10;;
29452;SDS011;16424;50.956;5.320;2023-04-01T18:26:50;4.07;;;2.90;;
29452;SDS011;16424;50.956;5.320;2023-04-01T18:32:15;6.70;;;3.53;;
29452;SDS011;16424;50.956;5.320;2023-04-01T18:35:24;3.75;;;3.40;;
29452;SDS011;16424;50.956;5.320;2023-04-01T18:38:15;4.40;;;3.15;;
29452;SDS011;16424;50.956;5.320;2023-04-01T18:43:38;6.72;;;3.97;;
29452;SDS011;16424;50.956;5.320;2023-04-01T18:54:16;6.65;;;4.57;;
29452;SDS011;16424;50.956;5.320;2023-04-01T18:56:44;4.97;;;4.40;;
29452;SDS011;16424;50.956;5.320;2023-04-01T19:02:05;6.88;;;5.15;;
29452;SDS011;16424;50.956;5.320;2023-04-01T19:04:52;7.47;;;5.18;;
29452;SDS011;16424;50.956;5.320;2023-04-01T19:13:17;7.68;;;5.32;;
29452;SDS011;16424;50.956;5.320;2023-04-01T19:16:04;7.68;;;5.80;;
29452;SDS011;16424;50.956;5.320;2023-04-01T19:18:47;6.35;;;5.40;;
29452;SDS011;16424;50.956;5.320;2023-04-01T19:21:35;7.80;;;5.65;;
29452;SDS011;16424;50.956;5.320;2023-04-01T19:27:16;6.80;;;6.13;;
29452;SDS011;16424;50.956;5.320;2023-04-01T19:32:49;7.82;;;6.57;;
29452;SDS011;16424;50.956;5.320;2023-04-01T19:35:35;9.25;;;7.10;;
29452;SDS011;16424;50.956;5.320;2023-04-01T19:40:45;8.70;;;7.57;;
29452;SDS011;16424;50.956;5.320;2023-04-01T19:59:20;10.65;;;8.60;;
29452;SDS011;16424;50.956;5.320;2023-04-01T20:02:01;11.23;;;8.05;;
29452;SDS011;16424;50.956;5.320;2023-04-01T20:04:37;10.73;;;8.68;;
29452;SDS011;16424;50.956;5.320;2023-04-01T20:07:47;11.07;;;9.27;;
29452;SDS011;16424;50.956;5.320;2023-04-01T20:10:17;10.55;;;8.60;;
29452;SDS011;16424;50.956;5.320;2023-04-01T20:15:43;15.13;;;9.40;;
29452;SDS011;16424;50.956;5.320;2023-04-01T20:20:56;21.30;;;11.43;;
29452;SDS011;16424;50.956;5.320;2023-04-01T20:26:02;15.18;;;10.30;;
29452;SDS011;16424;50.956;5.320;2023-04-01T20:39:59;19.67;;;12.73;;
29452;SDS011;16424;50.956;5.320;2023-04-01T20:45:46;19.50;;;14.20;;
29452;SDS011;16424;50.956;5.320;2023-04-01T20:48:39;15.68;;;11.73;;
29452;SDS011;16424;50.956;5.320;2023-04-01T20:51:13;16.02;;;11.85;;
29452;SDS011;16424;50.956;5.320;2023-04-01T20:56:10;16.35;;;11.85;;
29452;SDS011;16424;50.956;5.320;2023-04-01T21:16:26;15.52;;;10.70;;
29452;SDS011;16424;50.956;5.320;2023-04-01T21:25:21;14.43;;;9.88;;
29452;SDS011;16424;50.956;5.320;2023-04-01T21:37:05;14.77;;;8.93;;
29452;SDS011;16424;50.956;5.320;2023-04-01T21:45:39;12.80;;;8.73;;
29452;SDS011;16424;50.956;5.320;2023-04-01T22:07:58;17.63;;;11.68;;
29452;SDS011;16424;50.956;5.320;2023-04-01T22:13:23;15.15;;;11.60;;
29452;SDS011;16424;50.956;5.320;2023-04-01T22:24:43;13.82;;;10.43;;
29452;SDS011;16424;50.956;5.320;2023-04-01T22:27:35;15.55;;;11.10;;
29452;SDS011;16424;50.956;5.320;2023-04-01T22:30:19;14.77;;;11.32;;
29452;SDS011;16424;50.956;5.320;2023-04-01T22:33:05;15.45;;;10.82;;
29452;SDS011;16424;50.956;5.320;2023-04-01T22:36:40;11.95;;;8.68;;
29452;SDS011;16424;50.956;5.320;2023-04-01T22:41:24;11.07;;;7.97;;
29452;SDS011;16424;50.956;5.320;2023-04-01T22:43:58;11.35;;;8.15;;
29452;SDS011;16424;50.956;5.320;2023-04-01T22:49:29;13.55;;;10.18;;
29452;SDS011;16424;50.956;5.320;2023-04-01T22:51:58;15.82;;;10.93;;
29452;SDS011;16424;50.956;5.320;2023-04-01T22:54:43;12.90;;;10.27;;
29452;SDS011;16424;50.956;5.320;2023-04-01T23:00:00;15.60;;;11.93;;
29452;SDS011;16424;50.956;5.320;2023-04-01T23:02:33;18.77;;;11.73;;
29452;SDS011;16424;50.956;5.320;2023-04-01T23:05:05;17.38;;;12.25;;
29452;SDS011;16424;50.956;5.320;2023-04-01T23:10:16;18.58;;;13.48;;
29452;SDS011;16424;50.956;5.320;2023-04-01T23:13:08;18.98;;;13.07;;
29452;SDS011;16424;50.956;5.320;2023-04-01T23:15:40;17.25;;;12.77;;
29452;SDS011;16424;50.956;5.320;2023-04-01T23:18:21;20.10;;;14.10;;
29452;SDS011;16424;50.956;5.320;2023-04-01T23:21:12;21.08;;;13.45;;
29452;SDS011;16424;50.956;5.320;2023-04-01T23:23:45;19.80;;;14.43;;
29452;SDS011;16424;50.956;5.320;2023-04-01T23:26:21;18.15;;;12.85;;
29452;SDS011;16424;50.956;5.320;2023-04-01T23:29:15;18.85;;;13.88;;
29452;SDS011;16424;50.956;5.320;2023-04-01T23:32:01;19.10;;;14.45;;
29452;SDS011;16424;50.956;5.320;2023-04-01T23:34:30;22.58;;;14.82;;
29452;SDS011;16424;50.956;5.320;2023-04-01T23:37:02;21.50;;;14.77;;
29452;SDS011;16424;50.956;5.320;2023-04-01T23:39:32;17.52;;;12.25;;
29452;SDS011;16424;50.956;5.320;2023-04-01T23:42:11;17.98;;;12.68;;
29452;SDS011;16424;50.956;5.320;2023-04-01T23:44:40;11.52;;;9.05;;
29452;SDS011;16424;50.956;5.320;2023-04-01T23:47:09;13.88;;;10.23;;
29452;SDS011;16424;50.956;5.320;2023-04-01T23:49:45;14.27;;;9.23;;
29452;SDS011;16424;50.956;5.320;2023-04-01T23:52:47;16.52;;;10.88;;
29452;SDS011;16424;50.956;5.320;2023-04-01T23:58:00;17.00;;;11.60;;
